Time;durP1;ratioP1;P1;durP2;ratioP2;P2;SDS_P1;SDS_P2;PMS_P1;PMS_P2;Temp;Humidity;BMP_temperature;BMP_pressure;BME280_temperature;BME280_humidity;BME280_pressure;Samples;Min_cycle;Max_cycle;Signal;HPM_P1;HPM_P2
2021/12/02 00:01:17;;;;;;;4.72;1.70;;;7.50;99.90;;;;;;4974044;28;20170;-76
2021/12/02 00:03:45;;;;;;;11.38;2.60;;;7.30;99.90;;;;;;4973937;28;20161;-77
2021/12/02 00:06:13;;;;;;;1.73;1.40;;;7.40;99.90;;;;;;4974988;28;20664;-77
2021/12/02 00:08:39;;;;;;;5.35;1.45;;;7.20;99.90;;;;;;4974931;28;20675;-76
2021/12/02 00:11:06;;;;;;;4.82;1.67;;;7.20;99.90;;;;;;4973901;28;20173;-77
2021/12/02 00:13:53;;;;;;;8.10;1.80;;;7.30;99.90;;;;;;4973697;28;20170;-77
2021/12/02 00:16:36;;;;;;;6.65;1.45;;;7.40;99.90;;;;;;4973610;28;20298;-77
2021/12/02 00:21:51;;;;;;;6.82;1.63;;;7.40;99.90;;;;;;4973564;28;20212;-77
2021/12/02 00:24:19;;;;;;;2.65;1.27;;;7.50;99.90;;;;;;4956395;28;20186;-82
2021/12/02 00:26:46;;;;;;;7.25;1.80;;;7.40;99.90;;;;;;4973650;28;20194;-77
2021/12/02 00:29:19;;;;;;;4.93;1.65;;;7.20;99.90;;;;;;4973806;28;20158;-76
2021/12/02 00:31:46;;;;;;;5.97;2.20;;;7.00;99.90;;;;;;4973455;28;20641;-76
2021/12/02 00:34:12;;;;;;;7.43;1.73;;;6.90;99.90;;;;;;4973332;28;20755;-76
2021/12/02 00:36:39;;;;;;;5.82;1.27;;;6.80;99.90;;;;;;4956099;28;20212;-77
2021/12/02 00:39:09;;;;;;;4.45;1.67;;;6.80;99.90;;;;;;4973541;28;20248;-77
2021/12/02 00:41:34;;;;;;;5.25;1.00;;;6.80;99.90;;;;;;4973674;28;20178;-76
2021/12/02 00:44:01;;;;;;;2.28;1.17;;;6.70;99.90;;;;;;4973567;28;20164;-76
2021/12/02 00:46:31;;;;;;;2.58;1.33;;;6.80;99.90;;;;;;4973108;28;20186;-76
2021/12/02 00:49:01;;;;;;;3.97;1.45;;;6.80;99.90;;;;;;4955943;28;20193;-79
2021/12/02 00:51:28;;;;;;;12.00;1.40;;;6.90;99.90;;;;;;4973632;28;20585;-77
2021/12/02 00:53:54;;;;;;;6.15;1.80;;;6.70;99.90;;;;;;4973896;28;20166;-78
2021/12/02 00:56:25;;;;;;;2.97;1.60;;;6.80;99.90;;;;;;4977302;28;20213;-77
2021/12/02 00:58:52;;;;;;;6.10;1.60;;;6.90;99.90;;;;;;4977120;28;20162;-79
2021/12/02 01:01:20;;;;;;;8.27;2.03;;;7.00;99.90;;;;;;4976847;28;20583;-76
2021/12/02 01:03:55;;;;;;;4.75;1.20;;;7.10;99.90;;;;;;4959522;28;20578;-78
2021/12/02 01:06:20;;;;;;;4.65;1.52;;;7.20;99.90;;;;;;4976420;28;20289;-81
2021/12/02 01:08:46;;;;;;;5.15;1.45;;;7.00;99.90;;;;;;4976872;28;20676;-78
2021/12/02 01:11:13;;;;;;;9.80;1.55;;;6.90;99.90;;;;;;4977388;28;20174;-76
2021/12/02 01:13:39;;;;;;;8.15;1.80;;;6.90;99.90;;;;;;4977225;28;20620;-79
2021/12/02 01:16:05;;;;;;;12.18;2.00;;;6.80;99.90;;;;;;4976721;28;20260;-76
2021/12/02 01:18:31;;;;;;;8.32;2.10;;;6.70;99.90;;;;;;4977348;28;20169;-77
2021/12/02 01:20:57;;;;;;;7.47;2.60;;;6.70;99.90;;;;;;4977096;28;20528;-76
2021/12/02 01:23:24;;;;;;;9.32;2.15;;;6.70;99.90;;;;;;4976594;28;20213;-76
2021/12/02 01:25:58;;;;;;;12.45;2.90;;;6.70;99.90;;;;;;4976541;28;20185;-77
2021/12/02 01:28:24;;;;;;;9.45;2.03;;;6.70;99.90;;;;;;4976699;28;20186;-78
2021/12/02 01:30:54;;;;;;;7.47;2.58;;;6.60;99.90;;;;;;4976810;28;20636;-83
2021/12/02 01:33:22;;;;;;;8.68;2.40;;;6.60;99.90;;;;;;4959703;28;20189;-77
2021/12/02 01:36:06;;;;;;;2.55;1.73;;;6.60;99.90;;;;;;4976640;28;20214;-79
2021/12/02 01:38:33;;;;;;;8.30;1.63;;;6.70;99.90;;;;;;4976760;28;20198;-77
2021/12/02 01:41:00;;;;;;;3.13;1.58;;;6.80;99.90;;;;;;4976943;28;20197;-79
2021/12/02 01:43:53;;;;;;;3.33;1.60;;;6.80;99.90;;;;;;4976763;28;20170;-80
2021/12/02 01:46:21;;;;;;;9.30;1.20;;;6.60;99.90;;;;;;4973540;28;20568;-79
2021/12/02 01:48:54;;;;;;;3.13;0.82;;;6.50;99.90;;;;;;4976746;28;20600;-82
2021/12/02 01:51:25;;;;;;;14.00;2.53;;;6.60;99.90;;;;;;4976517;28;20668;-78
2021/12/02 01:53:57;;;;;;;8.30;1.30;;;6.70;99.90;;;;;;4976551;28;20174;-78
2021/12/02 01:56:26;;;;;;;4.05;1.63;;;6.60;99.90;;;;;;4976442;28;20210;-82
2021/12/02 01:58:52;;;;;;;13.05;2.20;;;6.60;99.90;;;;;;4976527;28;20172;-81
2021/12/02 02:01:26;;;;;;;7.40;1.13;;;6.40;99.90;;;;;;4976964;28;20251;-79
2021/12/02 02:03:55;;;;;;;5.70;1.63;;;6.40;99.90;;;;;;4982366;28;20201;-77
2021/12/02 02:06:36;;;;;;;1.52;0.82;;;6.40;99.90;;;;;;4986213;28;20224;-77
2021/12/02 02:09:03;;;;;;;7.05;1.25;;;6.30;99.90;;;;;;4990808;28;20170;-77
2021/12/02 02:11:30;;;;;;;7.03;1.35;;;6.40;99.90;;;;;;4990234;28;20604;-76
2021/12/02 02:13:58;;;;;;;5.82;1.08;;;6.40;99.90;;;;;;4993932;28;20162;-83
2021/12/02 02:16:24;;;;;;;4.53;1.42;;;6.40;99.90;;;;;;4995961;28;20237;-79
2021/12/02 02:18:50;;;;;;;2.78;1.10;;;6.30;99.90;;;;;;4995703;28;20148;-85
2021/12/02 02:21:18;;;;;;;6.95;1.80;;;6.30;99.90;;;;;;4998288;28;20213;-82
2021/12/02 02:24:11;;;;;;;4.55;1.10;;;6.30;99.90;;;;;;4985514;28;20212;-84
2021/12/02 02:26:36;;;;;;;5.35;1.73;;;6.40;99.90;;;;;;4979347;28;20540;-83
2021/12/02 02:29:04;;;;;;;5.80;1.33;;;6.30;99.90;;;;;;4978286;28;20561;-83
2021/12/02 02:31:32;;;;;;;5.43;1.73;;;6.40;99.90;;;;;;4976679;28;20162;-78
2021/12/02 02:33:58;;;;;;;9.43;1.50;;;6.60;99.90;;;;;;4975841;28;20174;-77
2021/12/02 02:36:27;;;;;;;8.68;1.75;;;6.60;99.90;;;;;;4975698;28;20710;-77
2021/12/02 02:38:57;;;;;;;1.75;1.10;;;6.60;99.90;;;;;;4976111;28;20177;-77
2021/12/02 02:41:28;;;;;;;9.18;1.30;;;6.70;99.90;;;;;;4975559;28;20189;-77
2021/12/02 02:43:57;;;;;;;5.22;1.20;;;6.60;99.90;;;;;;4975600;28;20166;-77
2021/12/02 02:46:35;;;;;;;4.40;1.13;;;6.60;99.90;;;;;;4975416;28;20194;-76
2021/12/02 02:49:04;;;;;;;4.68;1.20;;;6.50;99.90;;;;;;4975200;28;20606;-76
2021/12/02 02:51:31;;;;;;;3.40;0.40;;;6.30;99.90;;;;;;4974963;28;20688;-76
2021/12/02 02:54:03;;;;;;;1.42;0.70;;;6.10;99.90;;;;;;4975326;28;20552;-76
2021/12/02 02:56:30;;;;;;;1.48;0.73;;;6.00;99.90;;;;;;4974807;28;20205;-77
2021/12/02 02:59:05;;;;;;;8.98;0.95;;;5.70;99.90;;;;;;4957579;28;20210;-77
2021/12/02 03:09:21;;;;;;;2.88;0.80;;;5.70;99.90;;;;;;4975240;28;20272;-82
2021/12/02 03:11:53;;;;;;;3.10;1.05;;;5.70;99.90;;;;;;4974917;28;20212;-79
2021/12/02 03:14:28;;;;;;;8.38;1.10;;;5.70;99.90;;;;;;4975085;28;20257;-79
2021/12/02 03:16:54;;;;;;;4.47;1.35;;;5.80;99.90;;;;;;4974645;28;20214;-82
2021/12/02 03:19:25;;;;;;;5.63;1.67;;;5.90;99.90;;;;;;4956868;28;20209;-83
2021/12/02 03:21:53;;;;;;;3.65;1.38;;;5.90;99.90;;;;;;4975053;28;20676;-83
2021/12/02 03:24:22;;;;;;;4.65;1.17;;;5.90;99.90;;;;;;4978594;28;20186;-85
2021/12/02 03:26:48;;;;;;;4.93;0.80;;;6.00;99.90;;;;;;4980566;28;20730;-82
2021/12/02 03:29:14;;;;;;;7.05;1.15;;;6.00;99.90;;;;;;4976842;28;20174;-82
2021/12/02 03:31:39;;;;;;;3.13;1.02;;;6.10;99.90;;;;;;4976105;28;20162;-82
2021/12/02 03:34:09;;;;;;;5.43;1.00;;;6.10;99.90;;;;;;4975991;28;20212;-83
2021/12/02 03:36:38;;;;;;;7.75;1.33;;;6.10;99.90;;;;;;4976416;28;20296;-81
2021/12/02 03:39:09;;;;;;;3.15;1.13;;;6.20;99.90;;;;;;4982746;28;20232;-85
2021/12/02 03:41:36;;;;;;;5.97;1.35;;;6.20;99.90;;;;;;4981301;28;20178;-84
2021/12/02 03:44:01;;;;;;;1.95;0.80;;;6.30;99.90;;;;;;4979956;28;20188;-80
2021/12/02 03:46:28;;;;;;;6.30;1.00;;;6.40;99.90;;;;;;4984786;28;20189;-85
2021/12/02 03:48:55;;;;;;;4.13;1.08;;;6.40;99.90;;;;;;4981661;28;20197;-81
2021/12/02 03:51:21;;;;;;;8.35;1.27;;;6.40;99.90;;;;;;4966240;28;20606;-83
2021/12/02 03:53:47;;;;;;;5.57;1.05;;;6.50;99.90;;;;;;4984260;28;20169;-81
2021/12/02 03:56:13;;;;;;;7.35;1.15;;;6.60;99.90;;;;;;4974503;28;20213;-84
2021/12/02 03:58:41;;;;;;;8.40;1.38;;;6.70;99.90;;;;;;4974618;28;20205;-85
2021/12/02 04:01:08;;;;;;;3.92;1.25;;;6.40;99.90;;;;;;4974399;28;21026;-78
2021/12/02 04:03:34;;;;;;;7.28;1.20;;;6.30;99.90;;;;;;4974123;28;20594;-77
2021/12/02 04:06:00;;;;;;;5.22;1.23;;;6.20;99.90;;;;;;4973713;28;20306;-76
2021/12/02 04:16:23;;;;;;;3.42;1.83;;;5.70;99.90;;;;;;4974783;28;20221;-77
2021/12/02 04:18:49;;;;;;;3.97;1.85;;;5.80;99.90;;;;;;4973978;28;20170;-75
2021/12/02 04:21:15;;;;;;;8.00;2.83;;;5.70;99.90;;;;;;4973350;28;20177;-77
2021/12/02 04:23:41;;;;;;;5.45;2.35;;;5.80;99.90;;;;;;4956605;28;20601;-75
2021/12/02 04:26:06;;;;;;;7.93;2.53;;;5.80;99.90;;;;;;4973803;28;20272;-76
2021/12/02 04:28:32;;;;;;;9.70;4.20;;;5.90;99.90;;;;;;4972781;28;20520;-76
2021/12/02 04:30:58;;;;;;;7.50;2.78;;;6.00;99.90;;;;;;4962491;28;20660;-76
2021/12/02 04:33:24;;;;;;;13.32;2.95;;;6.00;99.90;;;;;;4979802;28;20252;-75
2021/12/02 04:35:50;;;;;;;7.20;3.03;;;6.00;99.90;;;;;;4979919;28;20605;-76
2021/12/02 04:38:16;;;;;;;10.18;1.65;;;6.10;99.90;;;;;;4980267;28;20166;-81
2021/12/02 04:40:43;;;;;;;9.32;1.75;;;6.00;99.90;;;;;;4980518;28;20260;-83
2021/12/02 04:43:08;;;;;;;1.05;0.95;;;5.90;99.90;;;;;;4980796;28;20165;-76
2021/12/02 04:45:34;;;;;;;0.93;0.85;;;5.70;99.90;;;;;;4962758;28;20232;-75
2021/12/02 04:48:00;;;;;;;0.73;0.60;;;5.50;99.90;;;;;;4979977;28;20174;-75
2021/12/02 04:50:26;;;;;;;0.50;0.50;;;5.20;99.90;;;;;;4980063;28;20193;-76
2021/12/02 04:52:53;;;;;;;2.70;0.88;;;5.30;99.90;;;;;;4981027;28;20707;-77
2021/12/02 04:55:20;;;;;;;1.15;0.70;;;5.20;99.90;;;;;;4980363;28;20564;-77
2021/12/02 04:57:46;;;;;;;2.83;0.88;;;5.20;99.90;;;;;;4980563;28;20197;-77
2021/12/02 05:00:13;;;;;;;2.53;0.95;;;5.20;99.90;;;;;;4980779;28;20525;-82
2021/12/02 05:02:40;;;;;;;4.75;1.15;;;5.20;99.90;;;;;;4980192;28;20173;-80
2021/12/02 05:05:07;;;;;;;1.88;0.90;;;5.20;99.90;;;;;;4980797;28;20305;-81
2021/12/02 05:07:33;;;;;;;4.65;0.85;;;5.20;99.90;;;;;;4980461;28;20556;-85
2021/12/02 05:09:58;;;;;;;1.60;0.80;;;5.20;99.90;;;;;;4980763;28;20170;-77
2021/12/02 05:12:24;;;;;;;6.15;1.45;;;5.10;99.90;;;;;;4980111;28;20177;-79
2021/12/02 05:14:50;;;;;;;1.67;0.90;;;5.10;99.90;;;;;;4980393;28;20198;-82
2021/12/02 05:17:16;;;;;;;3.97;0.77;;;5.20;99.90;;;;;;4979865;28;20675;-80
2021/12/02 05:19:41;;;;;;;3.42;0.90;;;5.10;99.90;;;;;;4980461;28;20228;-84
2021/12/02 05:22:08;;;;;;;3.90;0.93;;;5.10;99.90;;;;;;4979081;28;20166;-77
2021/12/02 05:24:37;;;;;;;4.05;0.70;;;5.00;99.90;;;;;;4980120;28;20204;-84
2021/12/02 05:27:03;;;;;;;9.45;0.95;;;5.00;99.90;;;;;;4962539;28;20536;-82
2021/12/02 05:29:28;;;;;;;1.00;0.60;;;5.00;99.90;;;;;;4979324;28;20265;-84
2021/12/02 05:31:54;;;;;;;1.23;0.73;;;4.90;99.90;;;;;;4980855;28;20200;-84
2021/12/02 05:34:20;;;;;;;1.15;0.47;;;4.80;99.90;;;;;;4980348;28;20189;-81
2021/12/02 05:36:45;;;;;;;2.30;0.55;;;4.60;99.90;;;;;;4979086;28;20201;-81
2021/12/02 05:39:11;;;;;;;0.40;0.40;;;4.60;99.90;;;;;;4980387;28;20652;-81
2021/12/02 05:41:36;;;;;;;1.23;0.63;;;4.60;99.90;;;;;;4959959;28;20173;-85
2021/12/02 05:44:03;;;;;;;6.95;1.25;;;4.50;99.90;;;;;;4977315;28;20169;-82
2021/12/02 05:46:28;;;;;;;1.05;0.50;;;4.50;99.90;;;;;;4977472;28;20186;-81
2021/12/02 05:48:54;;;;;;;2.22;0.63;;;4.50;99.90;;;;;;4977520;28;20173;-80
2021/12/02 05:51:20;;;;;;;3.58;0.95;;;4.50;99.90;;;;;;4977646;28;20166;-83
2021/12/02 05:53:45;;;;;;;1.08;0.70;;;4.50;99.90;;;;;;4977496;28;20209;-84
2021/12/02 05:56:11;;;;;;;4.55;0.70;;;4.60;99.90;;;;;;4977876;28;20569;-77
2021/12/02 05:58:37;;;;;;;3.72;0.85;;;4.60;99.90;;;;;;4983121;28;20170;-81
2021/12/02 06:01:02;;;;;;;5.75;1.20;;;4.50;99.90;;;;;;4982055;28;20174;-82
2021/12/02 06:03:28;;;;;;;3.17;0.88;;;4.40;99.90;;;;;;4966001;28;20245;-82
2021/12/02 06:05:54;;;;;;;3.50;0.70;;;4.60;99.90;;;;;;4982844;28;20194;-77
2021/12/02 06:08:19;;;;;;;2.20;0.98;;;4.70;99.90;;;;;;4979834;28;20174;-82
2021/12/02 06:10:45;;;;;;;3.38;1.00;;;4.70;99.90;;;;;;4977688;28;20652;-81
2021/12/02 06:13:11;;;;;;;5.40;0.85;;;4.60;99.90;;;;;;4976497;28;20177;-81
2021/12/02 06:15:37;;;;;;;7.10;1.25;;;4.70;99.90;;;;;;4976763;28;20205;-76
2021/12/02 06:18:02;;;;;;;0.80;0.70;;;4.70;99.90;;;;;;4976064;28;20166;-77
2021/12/02 06:20:28;;;;;;;2.65;0.77;;;4.90;99.90;;;;;;4976131;28;20540;-76
2021/12/02 06:22:54;;;;;;;7.85;2.90;;;5.00;99.90;;;;;;4957831;28;20190;-77
2021/12/02 06:27:48;;;;;;;13.82;2.70;;;5.10;99.90;;;;;;4975784;28;20639;-77
2021/12/02 06:30:16;;;;;;;12.07;4.20;;;5.00;99.90;;;;;;4975601;28;20224;-77
2021/12/02 06:32:42;;;;;;;9.07;3.53;;;5.00;99.90;;;;;;4975524;28;20166;-76
2021/12/02 06:35:08;;;;;;;16.60;3.95;;;5.00;99.90;;;;;;4957923;28;20224;-76
2021/12/02 06:37:35;;;;;;;9.10;3.30;;;4.90;99.90;;;;;;4974700;28;20193;-76
2021/12/02 06:40:01;;;;;;;16.08;4.60;;;4.80;99.90;;;;;;4975099;28;20624;-77
2021/12/02 06:42:26;;;;;;;9.75;3.03;;;4.90;99.90;;;;;;4974754;28;20189;-77
2021/12/02 06:44:52;;;;;;;7.75;2.95;;;5.00;99.90;;;;;;4974959;28;20205;-78
2021/12/02 06:47:20;;;;;;;8.13;2.50;;;5.10;99.90;;;;;;4974957;28;20241;-79
2021/12/02 06:49:45;;;;;;;9.07;2.55;;;4.90;99.90;;;;;;4975051;28;20208;-80
2021/12/02 06:52:13;;;;;;;6.82;2.20;;;4.90;99.90;;;;;;4974525;28;20189;-79
2021/12/02 06:54:39;;;;;;;6.43;2.20;;;4.90;99.90;;;;;;4973654;28;20746;-78
2021/12/02 06:57:06;;;;;;;8.18;1.58;;;5.00;99.90;;;;;;4974671;28;20268;-78
2021/12/02 06:59:32;;;;;;;6.03;1.67;;;5.00;99.90;;;;;;4974052;28;20220;-79
2021/12/02 07:01:58;;;;;;;7.22;1.13;;;4.90;99.90;;;;;;4974566;28;20309;-78
2021/12/02 07:04:24;;;;;;;11.60;1.25;;;4.90;99.90;;;;;;4975493;28;20235;-80
2021/12/02 07:06:50;;;;;;;3.55;1.25;;;4.80;99.90;;;;;;4976177;28;20186;-84
2021/12/02 07:09:15;;;;;;;9.50;1.08;;;4.70;99.90;;;;;;4976241;28;20166;-84
2021/12/02 07:11:42;;;;;;;5.63;0.95;;;4.70;99.90;;;;;;4976641;28;20252;-83
2021/12/02 07:14:13;;;;;;;5.35;1.17;;;4.70;99.90;;;;;;4976173;28;20170;-82
2021/12/02 07:16:39;;;;;;;4.75;0.93;;;4.70;99.90;;;;;;4976444;28;20209;-78
2021/12/02 07:19:07;;;;;;;3.88;1.10;;;4.70;99.90;;;;;;4976071;28;20177;-82
2021/12/02 07:21:36;;;;;;;2.65;0.73;;;4.40;99.90;;;;;;4975377;28;20256;-76
2021/12/02 07:24:02;;;;;;;1.05;0.73;;;4.10;99.90;;;;;;4974300;28;20192;-75
2021/12/02 07:26:28;;;;;;;5.75;1.10;;;4.10;99.90;;;;;;4973653;28;20656;-79
2021/12/02 07:28:54;;;;;;;2.38;0.65;;;4.00;99.90;;;;;;4972820;28;20241;-83
2021/12/02 07:31:21;;;;;;;6.43;1.10;;;3.70;99.90;;;;;;4947271;28;20205;-76
2021/12/02 07:33:50;;;;;;;2.15;0.80;;;3.50;99.90;;;;;;4958566;28;20170;-79
2021/12/02 07:36:18;;;;;;;0.93;0.65;;;3.40;99.90;;;;;;4973226;28;20205;-82
2021/12/02 07:38:45;;;;;;;4.28;0.93;;;3.50;99.90;;;;;;4963772;28;20182;-81
2021/12/02 07:41:10;;;;;;;6.65;0.60;;;3.40;99.90;;;;;;4960870;28;20254;-84
2021/12/02 07:43:39;;;;;;;0.63;0.60;;;3.40;99.90;;;;;;4974512;28;20190;-79
2021/12/02 07:46:05;;;;;;;0.50;0.50;;;3.50;99.90;;;;;;4973012;28;20280;-79
2021/12/02 07:48:31;;;;;;;0.75;0.60;;;3.50;99.90;;;;;;4974457;28;20176;-79
2021/12/02 07:51:05;;;;;;;0.52;0.50;;;3.60;99.90;;;;;;4973941;28;20173;-79
2021/12/02 07:53:30;;;;;;;0.63;0.38;;;3.70;99.90;;;;;;4973257;28;20617;-79
2021/12/02 07:55:57;;;;;;;1.88;0.60;;;3.60;99.90;;;;;;4973047;28;20244;-77
2021/12/02 07:58:24;;;;;;;0.73;0.73;;;3.80;99.90;;;;;;4972673;28;20166;-78
2021/12/02 08:00:51;;;;;;;0.50;0.50;;;3.70;99.90;;;;;;4973654;28;20197;-84
2021/12/02 08:03:16;;;;;;;0.98;0.50;;;3.60;99.90;;;;;;4974574;28;20212;-83
2021/12/02 08:05:43;;;;;;;0.80;0.75;;;3.60;99.90;;;;;;4972635;28;20338;-78
2021/12/02 08:08:09;;;;;;;0.47;0.47;;;3.70;99.90;;;;;;4974102;28;20178;-77
2021/12/02 08:10:36;;;;;;;2.08;0.73;;;3.80;99.90;;;;;;4974319;28;20640;-82
2021/12/02 08:13:02;;;;;;;0.60;0.60;;;3.80;99.90;;;;;;4974196;28;20248;-79
2021/12/02 08:15:30;;;;;;;2.15;0.88;;;3.80;99.90;;;;;;4970083;28;20205;-84
2021/12/02 08:17:57;;;;;;;0.95;0.80;;;3.70;99.90;;;;;;4973963;28;20185;-84
2021/12/02 08:20:25;;;;;;;0.80;0.80;;;3.70;99.90;;;;;;4973454;28;20704;-83
2021/12/02 08:22:52;;;;;;;1.63;0.98;;;3.70;99.90;;;;;;4955440;28;20192;-82
2021/12/02 08:25:20;;;;;;;1.08;0.73;;;3.90;99.90;;;;;;4974858;28;20170;-83
2021/12/02 08:27:45;;;;;;;1.00;0.75;;;4.00;99.90;;;;;;4952595;28;20191;-84
2021/12/02 08:30:14;;;;;;;1.48;1.20;;;4.10;99.90;;;;;;4955631;28;20198;-83
2021/12/02 08:32:42;;;;;;;1.23;1.02;;;4.20;99.90;;;;;;4955580;29;20225;-82
2021/12/02 08:35:09;;;;;;;5.25;1.60;;;4.20;99.90;;;;;;4942912;29;20198;-85
2021/12/02 08:37:39;;;;;;;3.08;1.92;;;3.90;99.90;;;;;;4968146;28;20609;-81
2021/12/02 08:40:05;;;;;;;3.03;1.73;;;3.90;99.90;;;;;;4973877;28;20173;-83
2021/12/02 08:42:33;;;;;;;2.95;1.80;;;3.70;99.90;;;;;;4963714;28;20735;-84
2021/12/02 08:45:01;;;;;;;10.50;2.00;;;3.60;99.90;;;;;;4954600;29;20241;-83
2021/12/02 08:47:28;;;;;;;7.50;2.10;;;3.50;99.90;;;;;;4965973;28;20190;-84
2021/12/02 08:49:55;;;;;;;5.28;2.05;;;3.40;99.90;;;;;;4973812;28;20166;-83
2021/12/02 08:52:22;;;;;;;6.20;1.65;;;3.30;99.90;;;;;;4972993;28;20183;-83
2021/12/02 08:54:49;;;;;;;8.50;2.15;;;3.30;99.90;;;;;;4956978;28;21734;-85
2021/12/02 08:57:18;;;;;;;5.82;2.20;;;3.40;99.90;;;;;;4973238;28;20664;-76
2021/12/02 08:59:44;;;;;;;6.68;2.38;;;3.40;99.90;;;;;;4973420;28;20170;-89
2021/12/02 09:02:10;;;;;;;7.45;3.25;;;3.40;99.90;;;;;;4972767;28;20667;-78
2021/12/02 09:04:36;;;;;;;7.75;2.65;;;3.40;99.90;;;;;;4960369;28;20665;-78
2021/12/02 09:07:02;;;;;;;7.10;2.45;;;3.50;99.90;;;;;;4961717;28;20243;-83
2021/12/02 09:09:28;;;;;;;15.50;3.30;;;3.60;99.90;;;;;;4966682;28;20182;-85
2021/12/02 09:11:55;;;;;;;8.43;3.53;;;3.80;99.90;;;;;;4959924;29;20166;-79
2021/12/02 09:14:21;;;;;;;6.55;3.95;;;3.80;99.90;;;;;;4967643;28;20162;-79
2021/12/02 09:16:48;;;;;;;7.75;3.47;;;3.90;99.90;;;;;;4975638;28;20569;-80
2021/12/02 09:19:14;;;;;;;11.55;3.25;;;3.90;99.90;;;;;;4977138;28;20169;-81
2021/12/02 09:21:40;;;;;;;11.20;3.97;;;4.10;99.90;;;;;;4979365;28;20625;-83
2021/12/02 09:24:05;;;;;;;9.05;3.10;;;4.20;99.90;;;;;;4981340;28;20186;-84
2021/12/02 09:26:31;;;;;;;4.78;3.25;;;4.50;99.90;;;;;;4981483;28;20196;-85
2021/12/02 09:28:58;;;;;;;11.15;3.47;;;4.80;99.90;;;;;;4981069;28;20182;-76
2021/12/02 09:31:24;;;;;;;10.35;4.70;;;4.80;99.90;;;;;;4987770;28;20158;-77
2021/12/02 09:33:50;;;;;;;7.43;3.33;;;4.90;99.90;;;;;;4989047;28;20184;-76
2021/12/02 09:36:17;;;;;;;8.73;3.50;;;5.10;99.90;;;;;;4989368;28;20668;-77
2021/12/02 09:38:44;;;;;;;7.93;4.22;;;5.30;99.90;;;;;;4986861;28;20170;-83
2021/12/02 09:41:10;;;;;;;7.97;3.55;;;5.40;99.90;;;;;;4959668;28;20189;-79
2021/12/02 09:43:35;;;;;;;9.55;3.97;;;5.40;99.90;;;;;;4977296;28;20165;-77
2021/12/02 09:46:02;;;;;;;6.93;2.88;;;5.60;99.90;;;;;;4977015;28;20541;-77
2021/12/02 09:48:28;;;;;;;9.15;3.58;;;5.60;99.90;;;;;;4959838;28;20170;-78
2021/12/02 09:51:04;;;;;;;15.15;8.07;;;5.50;99.90;;;;;;4977026;28;20174;-77
2021/12/02 09:53:35;;;;;;;9.88;6.05;;;5.50;99.90;;;;;;4977759;28;20213;-84
2021/12/02 09:56:23;;;;;;;6.43;4.32;;;5.20;99.90;;;;;;4976682;28;20766;-82
2021/12/02 09:58:52;;;;;;;5.38;2.53;;;5.10;99.90;;;;;;4975913;28;20655;-86
2021/12/02 10:04:05;;;;;;;2.13;1.70;;;4.90;99.90;;;;;;4976700;28;20190;-78
2021/12/02 10:06:32;;;;;;;4.90;1.50;;;5.00;99.90;;;;;;4959208;28;20205;-80
2021/12/02 10:09:13;;;;;;;9.73;1.58;;;4.80;99.90;;;;;;4974922;28;20228;-77
2021/12/02 10:11:51;;;;;;;4.18;1.45;;;4.60;99.90;;;;;;4975919;28;20170;-78
2021/12/02 10:14:25;;;;;;;3.13;2.00;;;4.50;99.90;;;;;;4959071;28;20165;-81
2021/12/02 10:17:05;;;;;;;5.72;1.45;;;4.10;99.90;;;;;;4944842;29;20216;-79
2021/12/02 10:19:31;;;;;;;2.60;1.45;;;3.90;99.90;;;;;;4958073;28;20174;-81
2021/12/02 10:22:22;;;;;;;1.40;1.30;;;3.90;99.90;;;;;;4965426;28;20626;-84
2021/12/02 10:24:43;;;;;;;4.38;1.90;;;3.90;99.90;;;;;;4956207;29;20191;-81
2021/12/02 10:27:11;;;;;;;4.13;1.15;;;3.70;99.90;;;;;;4966955;28;20711;-80
2021/12/02 10:29:39;;;;;;;1.83;1.60;;;3.60;99.90;;;;;;4974175;28;20205;-80
2021/12/02 10:32:28;;;;;;;2.08;1.50;;;3.60;99.90;;;;;;4975764;28;20704;-85
2021/12/02 10:34:58;;;;;;;2.65;1.05;;;3.80;99.90;;;;;;4953231;28;20203;-82
2021/12/02 10:37:29;;;;;;;1.92;1.23;;;3.90;99.90;;;;;;4969502;28;20226;-80
2021/12/02 10:40:11;;;;;;;1.65;1.20;;;3.90;99.90;;;;;;4954775;29;20171;-80
2021/12/02 10:42:43;;;;;;;3.58;1.20;;;3.80;99.90;;;;;;4954433;28;20233;-79
2021/12/02 10:45:26;;;;;;;3.63;1.55;;;4.10;99.90;;;;;;4972556;28;20812;-78
2021/12/02 10:47:54;;;;;;;3.10;1.80;;;4.20;99.90;;;;;;4973105;28;20206;-81
2021/12/02 10:50:21;;;;;;;2.90;1.55;;;4.30;99.90;;;;;;4972495;28;20656;-81
2021/12/02 10:52:48;;;;;;;2.40;1.77;;;4.20;99.90;;;;;;4973976;28;20181;-84
2021/12/02 10:55:17;;;;;;;2.38;1.30;;;4.50;99.90;;;;;;4953731;29;20649;-79
2021/12/02 10:57:52;;;;;;;2.50;1.60;;;4.30;99.90;;;;;;4961954;28;20640;-80
2021/12/02 11:00:29;;;;;;;5.25;1.73;;;3.90;99.90;;;;;;4937335;29;20177;-80
2021/12/02 11:02:58;;;;;;;5.20;1.65;;;3.60;99.90;;;;;;4954312;29;20309;-79
2021/12/02 11:05:32;;;;;;;2.65;1.80;;;3.70;99.90;;;;;;4955577;29;20182;-81
2021/12/02 11:07:58;;;;;;;2.65;1.85;;;3.80;99.90;;;;;;4955727;28;20200;-80
2021/12/02 11:10:25;;;;;;;1.88;1.73;;;4.10;99.90;;;;;;4967087;28;20181;-82
2021/12/02 11:12:54;;;;;;;3.83;1.63;;;4.50;99.90;;;;;;4974082;28;20166;-82
2021/12/02 11:15:23;;;;;;;10.55;1.38;;;4.70;99.90;;;;;;4974637;28;20212;-78
2021/12/02 11:17:59;;;;;;;2.60;2.13;;;4.60;99.90;;;;;;4966514;28;20210;-83
2021/12/02 11:20:45;;;;;;;2.65;1.50;;;4.40;99.90;;;;;;4974461;28;20223;-81
2021/12/02 11:23:14;;;;;;;3.00;2.00;;;4.40;99.90;;;;;;4973514;28;20205;-83
2021/12/02 11:25:54;;;;;;;4.07;1.77;;;4.30;99.90;;;;;;4974089;28;20178;-79
2021/12/02 11:28:24;;;;;;;2.83;2.03;;;4.20;99.90;;;;;;4972698;28;20181;-81
2021/12/02 11:30:50;;;;;;;7.05;3.33;;;4.20;99.90;;;;;;4972663;28;20174;-78
2021/12/02 11:33:18;;;;;;;3.65;2.13;;;4.30;99.90;;;;;;4974566;28;20174;-81
2021/12/02 11:35:46;;;;;;;3.15;2.05;;;4.30;99.90;;;;;;4974397;28;20206;-79
2021/12/02 11:38:18;;;;;;;3.88;2.28;;;4.40;99.90;;;;;;4973394;28;20202;-81
2021/12/02 11:40:47;;;;;;;4.10;2.13;;;4.70;99.90;;;;;;4973633;28;20691;-80
2021/12/02 11:43:23;;;;;;;2.47;1.80;;;4.80;99.90;;;;;;4957123;28;20174;-81
2021/12/02 11:45:51;;;;;;;2.70;1.70;;;4.80;99.90;;;;;;4974324;28;20189;-82
2021/12/02 11:48:28;;;;;;;2.72;1.52;;;4.70;99.90;;;;;;4973720;28;20580;-81
2021/12/02 11:50:57;;;;;;;3.65;1.85;;;4.80;99.90;;;;;;4957312;28;20169;-78
2021/12/02 11:53:23;;;;;;;3.95;2.70;;;5.00;99.90;;;;;;4974481;28;20527;-80
2021/12/02 11:56:01;;;;;;;6.68;2.53;;;4.90;99.90;;;;;;4974408;28;20260;-80
2021/12/02 11:58:27;;;;;;;10.10;2.78;;;4.90;99.90;;;;;;4974281;28;20170;-79
2021/12/02 12:00:54;;;;;;;5.93;4.30;;;4.90;99.90;;;;;;4974255;28;20166;-80
2021/12/02 12:03:32;;;;;;;10.05;6.15;;;4.90;99.90;;;;;;4974237;28;20181;-79
2021/12/02 12:06:05;;;;;;;6.20;4.38;;;4.90;99.90;;;;;;4973627;28;20181;-78
2021/12/02 12:08:39;;;;;;;2.40;2.17;;;4.60;99.90;;;;;;4973659;28;20196;-76
2021/12/02 12:11:22;;;;;;;2.75;2.13;;;4.50;99.90;;;;;;4973763;28;20180;-77
2021/12/02 12:13:59;;;;;;;7.47;3.15;;;4.60;99.90;;;;;;4973668;28;20321;-77
2021/12/02 12:16:26;;;;;;;4.65;2.55;;;4.70;99.90;;;;;;4956201;28;20202;-78
2021/12/02 12:18:55;;;;;;;4.72;2.35;;;4.70;99.90;;;;;;4973796;28;20628;-81
2021/12/02 12:21:44;;;;;;;3.90;2.42;;;4.90;99.90;;;;;;4973817;28;20177;-77
2021/12/02 12:24:10;;;;;;;6.28;4.90;;;4.90;99.90;;;;;;4956895;28;20200;-80
2021/12/02 12:26:38;;;;;;;9.40;4.18;;;5.00;99.90;;;;;;4974258;28;20186;-84
2021/12/02 12:29:04;;;;;;;6.15;3.10;;;5.20;99.90;;;;;;4974055;28;20215;-77
2021/12/02 12:34:48;;;;;;;2.53;2.13;;;5.00;99.90;;;;;;4975440;28;20174;-81
2021/12/02 12:37:20;;;;;;;4.93;2.42;;;4.90;99.90;;;;;;4974449;28;20232;-78
2021/12/02 12:40:17;;;;;;;5.55;2.72;;;5.00;99.90;;;;;;4980391;28;20186;-78
2021/12/02 12:42:51;;;;;;;5.63;2.40;;;5.00;99.90;;;;;;4975325;28;20170;-82
2021/12/02 12:45:27;;;;;;;3.17;2.17;;;5.00;99.90;;;;;;4974476;28;20165;-83
2021/12/02 12:47:58;;;;;;;4.35;2.22;;;5.00;99.90;;;;;;4974260;28;20169;-83
2021/12/02 12:50:43;;;;;;;2.28;1.90;;;4.90;99.90;;;;;;4957487;28;20181;-77
2021/12/02 12:53:18;;;;;;;4.10;1.90;;;4.80;99.90;;;;;;4977239;28;20170;-78
2021/12/02 12:55:52;;;;;;;4.40;2.97;;;4.80;99.90;;;;;;4959735;28;20240;-79
2021/12/02 12:58:22;;;;;;;3.80;3.10;;;4.70;99.90;;;;;;4960249;28;20252;-79
2021/12/02 13:00:57;;;;;;;2.28;2.08;;;4.70;99.90;;;;;;4960166;28;20269;-79
2021/12/02 13:03:29;;;;;;;3.15;1.90;;;4.70;99.90;;;;;;4977039;28;20223;-78
2021/12/02 13:06:10;;;;;;;3.30;1.70;;;4.60;99.90;;;;;;4977073;28;20214;-78
2021/12/02 13:08:48;;;;;;;1.30;1.10;;;4.90;99.90;;;;;;4977206;28;20245;-78
2021/12/02 13:11:16;;;;;;;2.10;1.55;;;5.10;99.90;;;;;;4959854;28;20232;-78
2021/12/02 13:13:42;;;;;;;3.55;1.13;;;5.30;99.90;;;;;;4977512;28;20176;-80
2021/12/02 13:16:27;;;;;;;1.10;1.00;;;5.60;99.90;;;;;;4959787;28;20212;-78
2021/12/02 13:19:09;;;;;;;2.58;1.27;;;5.90;99.90;;;;;;4976306;28;20174;-79
2021/12/02 13:21:35;;;;;;;1.05;0.90;;;5.90;99.90;;;;;;4959471;28;20177;-79
2021/12/02 13:24:28;;;;;;;1.92;1.08;;;5.70;99.90;;;;;;4976229;28;20182;-76
2021/12/02 13:26:54;;;;;;;0.73;0.73;;;5.80;99.90;;;;;;4960288;28;20271;-76
2021/12/02 13:29:23;;;;;;;0.82;0.60;;;5.40;99.90;;;;;;4959001;28;20233;-77
2021/12/02 13:31:54;;;;;;;1.52;0.90;;;4.70;99.90;;;;;;4957353;29;20170;-80